createdAt,value
2023-05-02T00:00:41.923Z,100.0
2023-05-02T00:07:03.927Z,100.0
2023-05-02T00:13:23.258Z,100.0
2023-05-02T00:19:42.943Z,100.0
2023-05-02T00:28:58.029Z,100.0
2023-05-02T00:35:18.003Z,100.0
2023-05-02T00:41:37.353Z,100.0
2023-05-02T00:47:57.431Z,100.0
2023-05-02T00:54:17.526Z,100.0
2023-05-02T01:00:37.617Z,100.0
2023-05-02T01:13:53.233Z,100.0
2023-05-02T01:20:12.700Z,100.0
2023-05-02T01:32:15.926Z,100.0
2023-05-02T01:38:35.791Z,100.0
2023-05-02T01:44:55.279Z,100.0
2023-05-02T01:51:15.020Z,100.0
2023-05-02T02:03:10.846Z,100.0
2023-05-02T02:09:31.784Z,100.0
2023-05-02T02:19:17.025Z,100.0
2023-05-02T02:25:36.158Z,100.0
2023-05-02T02:37:50.461Z,100.0
2023-05-02T02:44:10.210Z,100.0
2023-05-02T02:50:30.253Z,100.0
2023-05-02T02:56:50.345Z,100.0
2023-05-02T03:03:10.393Z,100.0
2023-05-02T03:09:30.099Z,100.0
2023-05-02T03:16:49.621Z,100.0
2023-05-02T03:23:08.946Z,100.0
2023-05-02T03:29:28.024Z,100.0
2023-05-02T03:40:58.334Z,100.0
2023-05-02T03:48:22.420Z,100.0
2023-05-02T03:54:42.243Z,100.0
2023-05-02T04:01:03.489Z,100.0
2023-05-02T04:07:23.800Z,100.0
2023-05-02T04:13:43.877Z,100.0
2023-05-02T04:20:05.566Z,100.0
2023-05-02T04:26:28.302Z,100.0
2023-05-02T04:35:45.028Z,100.0
2023-05-02T04:42:07.277Z,100.0
2023-05-02T04:53:02.070Z,100.0
2023-05-02T05:03:46.216Z,100.0
2023-05-02T05:10:08.559Z,100.0
2023-05-02T05:16:30.820Z,100.0
2023-05-02T05:22:52.385Z,100.0
2023-05-02T05:29:14.939Z,100.0
2023-05-02T05:35:36.684Z,100.0
2023-05-02T05:42:00.887Z,100.0
2023-05-02T05:48:24.598Z,100.0
2023-05-02T05:54:48.455Z,100.0
2023-05-02T06:02:32.323Z,100.0
2023-05-02T06:08:55.967Z,100.0
2023-05-02T06:28:27.774Z,100.0
2023-05-02T06:34:51.911Z,100.0
2023-05-02T06:41:17.298Z,100.0
2023-05-02T06:47:42.237Z,100.0
2023-05-02T06:54:05.352Z,100.0
2023-05-02T07:00:30.121Z,100.0
2023-05-02T07:06:51.515Z,100.0
2023-05-02T07:13:53.815Z,100.0
2023-05-02T07:20:15.287Z,100.0
2023-05-02T07:26:38.863Z,100.0
2023-05-02T07:33:00.984Z,100.0
2023-05-02T07:44:06.917Z,100.0
2023-05-02T07:50:28.909Z,100.0
2023-05-02T07:56:50.778Z,100.0
2023-05-02T08:08:09.397Z,100.0
2023-05-02T08:14:30.899Z,100.0
2023-05-02T08:20:52.171Z,100.0
2023-05-02T08:32:17.741Z,100.0
2023-05-02T08:38:39.185Z,100.0
2023-05-02T08:45:01.383Z,100.0
2023-05-02T09:01:20.831Z,98.47969925818906
2023-05-02T09:07:41.703Z,99.5814260999768
2023-05-02T09:14:03.699Z,100.0
2023-05-02T09:20:25.744Z,100.0
2023-05-02T09:26:46.543Z,99.30741267694742
2023-05-02T09:33:06.794Z,96.23457270168764
2023-05-02T09:39:26.613Z,92.77356735117557
2023-05-02T09:55:54.854Z,89.9161889876973
2023-05-02T10:02:15.008Z,88.6393199116891
2023-05-02T10:08:34.491Z,90.30032397184705
2023-05-02T10:14:54.073Z,87.97391147045079
2023-05-02T10:21:16.381Z,89.62380984363013
2023-05-02T10:27:36.069Z,93.50366483779135
2023-05-02T10:33:56.142Z,90.51568597728513
2023-05-02T10:40:16.349Z,91.54369672218482
2023-05-02T11:12:31.259Z,97.25062021231454
2023-05-02T11:23:13.235Z,95.62958296181179
2023-05-02T11:29:35.063Z,99.41825065291665
2023-05-02T11:35:57.362Z,100.0
2023-05-02T11:42:19.317Z,100.0
2023-05-02T11:48:40.818Z,100.0
2023-05-02T11:58:25.371Z,97.67922562612378
2023-05-02T12:04:45.473Z,95.96807259986032
2023-05-02T12:20:35.498Z,92.08983164135998
2023-05-02T12:32:39.925Z,93.54763967040039
2023-05-02T12:44:56.983Z,94.28782639527603
2023-05-02T12:51:17.777Z,94.93642462443918
2023-05-02T12:57:37.734Z,97.2045677168177
2023-05-02T13:03:57.995Z,93.4918173287213
2023-05-02T13:10:18.520Z,92.6781283294259
2023-05-02T13:19:26.641Z,97.52827920067485
2023-05-02T13:25:46.852Z,99.13037222837426
2023-05-02T13:34:26.844Z,95.820953224581
2023-05-02T13:40:47.009Z,96.57409930219407
2023-05-02T13:47:06.733Z,97.6909368098322
2023-05-02T13:55:05.738Z,96.0327198053412
2023-05-02T14:01:26.072Z,96.14983998395242
2023-05-02T14:07:46.714Z,94.56784803674074
2023-05-02T14:14:07.532Z,97.16963599292473
2023-05-02T14:20:29.625Z,99.93525031664312
2023-05-02T14:26:51.725Z,100.0
2023-05-02T14:33:13.544Z,99.85946524457832
2023-05-02T14:39:55.128Z,98.67513442948746
2023-05-02T14:46:15.911Z,96.65248465148952
2023-05-02T14:52:36.027Z,95.80716479830545
2023-05-02T14:58:57.066Z,97.23439161455458
2023-05-02T15:05:18.069Z,97.24001997264254
2023-05-02T15:11:37.927Z,97.04811135790116
2023-05-02T15:17:58.653Z,99.31124133389271
2023-05-02T15:24:19.515Z,99.83488253258749
2023-05-02T15:36:18.988Z,99.97162460873486
2023-05-02T15:42:39.811Z,99.22169999050705
2023-05-02T15:48:59.719Z,98.61364536467994
2023-05-02T15:55:19.763Z,98.11170661727188
2023-05-02T16:01:40.910Z,99.26985600849645
2023-05-02T16:14:11.514Z,99.64673621673505
2023-05-02T16:25:59.754Z,99.03020636070899
2023-05-02T16:32:30.855Z,99.9766543046194
2023-05-02T16:39:51.082Z,100.0
2023-05-02T16:46:13.176Z,100.0
2023-05-02T16:52:34.451Z,99.67447746336536
2023-05-02T16:58:55.683Z,99.83119819730227
2023-05-02T17:06:36.199Z,100.0
2023-05-02T17:13:01.089Z,100.0
2023-05-02T17:23:23.994Z,100.0
2023-05-02T17:29:53.229Z,100.0
2023-05-02T17:36:18.743Z,100.0
2023-05-02T17:42:42.326Z,100.0
2023-05-02T17:49:05.829Z,100.0
2023-05-02T17:55:51.753Z,100.0
2023-05-02T18:02:22.004Z,100.0
2023-05-02T18:08:44.428Z,100.0
2023-05-02T18:15:07.572Z,100.0
2023-05-02T18:25:23.360Z,100.0
2023-05-02T18:37:08.629Z,100.0
2023-05-02T18:47:19.175Z,100.0
2023-05-02T18:56:21.129Z,100.0
2023-05-02T19:02:42.412Z,100.0
2023-05-02T19:09:04.676Z,100.0
2023-05-02T19:15:29.077Z,100.0
2023-05-02T19:23:40.685Z,100.0
2023-05-02T19:30:02.068Z,100.0
2023-05-02T19:36:30.769Z,100.0
2023-05-02T19:42:55.747Z,100.0
2023-05-02T19:53:23.310Z,100.0
2023-05-02T19:59:43.640Z,100.0
2023-05-02T20:10:27.716Z,100.0
2023-05-02T20:21:08.723Z,100.0
2023-05-02T20:27:38.599Z,100.0
2023-05-02T20:34:00.324Z,100.0
2023-05-02T20:45:31.711Z,100.0
2023-05-02T20:51:52.832Z,100.0
2023-05-02T20:58:14.483Z,100.0
2023-05-02T21:04:35.216Z,100.0
2023-05-02T21:13:38.606Z,100.0
2023-05-02T21:20:03.430Z,100.0
2023-05-02T21:26:25.005Z,100.0
2023-05-02T21:36:37.805Z,100.0
2023-05-02T21:42:56.240Z,100.0
2023-05-02T21:49:18.046Z,100.0
2023-05-02T21:55:42.569Z,100.0
2023-05-02T22:02:12.407Z,100.0
2023-05-02T22:10:50.866Z,100.0
2023-05-02T22:17:14.500Z,100.0
2023-05-02T22:23:39.270Z,100.0
2023-05-02T22:30:01.606Z,100.0
2023-05-02T22:36:22.827Z,100.0
2023-05-02T22:42:43.938Z,100.0
2023-05-02T22:49:03.805Z,100.0
2023-05-02T22:55:24.985Z,100.0
2023-05-02T23:01:45.393Z,100.0
2023-05-02T23:08:05.020Z,100.0
2023-05-02T23:24:29.779Z,100.0
2023-05-02T23:30:49.108Z,100.0
2023-05-02T23:37:09.478Z,100.0
2023-05-02T23:43:29.573Z,100.0
2023-05-02T23:55:59.375Z,100.0
